sensor_id;sensor_type;location;lat;lon;timestamp;pressure;altitude;pressure_sealevel;temperature;humidity
20710;BME280;10516;51.518;9.864;2023-05-25T00:01:40;99620.38;;;12.20;71.94
20710;BME280;10516;51.518;9.864;2023-05-25T00:04:08;99628.66;;;12.18;71.86
20710;BME280;10516;51.518;9.864;2023-05-25T00:06:34;99621.00;;;12.10;72.03
20710;BME280;10516;51.518;9.864;2023-05-25T00:09:01;99618.91;;;12.12;71.72
20710;BME280;10516;51.518;9.864;2023-05-25T00:11:26;99618.31;;;12.10;71.91
20710;BME280;10516;51.518;9.864;2023-05-25T00:13:52;99605.00;;;11.98;72.14
20710;BME280;10516;51.518;9.864;2023-05-25T00:16:17;99630.41;;;12.13;71.71
20710;BME280;10516;51.518;9.864;2023-05-25T00:18:43;99625.88;;;12.13;71.63
20710;BME280;10516;51.518;9.864;2023-05-25T00:21:09;99625.13;;;12.01;71.62
20710;BME280;10516;51.518;9.864;2023-05-25T00:23:35;99599.00;;;11.80;71.56
20710;BME280;10516;51.518;9.864;2023-05-25T00:26:01;99618.53;;;11.92;71.69
20710;BME280;10516;51.518;9.864;2023-05-25T00:28:27;99627.38;;;11.92;71.59
20710;BME280;10516;51.518;9.864;2023-05-25T00:30:52;99622.38;;;11.84;71.83
20710;BME280;10516;51.518;9.864;2023-05-25T00:33:18;99630.19;;;11.86;71.49
20710;BME280;10516;51.518;9.864;2023-05-25T00:35:43;99616.84;;;11.74;71.42
20710;BME280;10516;51.518;9.864;2023-05-25T00:38:18;99617.53;;;11.70;71.89
20710;BME280;10516;51.518;9.864;2023-05-25T00:40:44;99628.81;;;11.72;71.56
20710;BME280;10516;51.518;9.864;2023-05-25T00:43:10;99603.69;;;11.61;71.75
20710;BME280;10516;51.518;9.864;2023-05-25T00:45:37;99612.28;;;11.63;71.92
20710;BME280;10516;51.518;9.864;2023-05-25T00:48:03;99621.81;;;11.71;71.41
20710;BME280;10516;51.518;9.864;2023-05-25T00:50:37;99609.63;;;11.63;71.36
20710;BME280;10516;51.518;9.864;2023-05-25T00:53:04;99621.03;;;11.70;71.58
20710;BME280;10516;51.518;9.864;2023-05-25T00:55:34;99630.66;;;11.71;71.42
20710;BME280;10516;51.518;9.864;2023-05-25T00:58:02;99611.22;;;11.64;71.39
20710;BME280;10516;51.518;9.864;2023-05-25T01:00:29;99628.81;;;11.72;72.08
20710;BME280;10516;51.518;9.864;2023-05-25T01:02:57;99594.28;;;11.59;72.16
20710;BME280;10516;51.518;9.864;2023-05-25T01:05:24;99614.06;;;11.69;72.50
20710;BME280;10516;51.518;9.864;2023-05-25T01:07:55;99618.44;;;11.75;72.01
20710;BME280;10516;51.518;9.864;2023-05-25T01:10:21;99626.25;;;11.77;72.08
20710;BME280;10516;51.518;9.864;2023-05-25T01:12:50;99621.03;;;11.59;72.71
20710;BME280;10516;51.518;9.864;2023-05-25T01:15:19;99624.28;;;11.72;72.56
20710;BME280;10516;51.518;9.864;2023-05-25T01:17:45;99618.44;;;11.75;72.44
20710;BME280;10516;51.518;9.864;2023-05-25T01:20:10;99613.59;;;11.72;72.21
20710;BME280;10516;51.518;9.864;2023-05-25T01:22:39;99613.22;;;11.69;72.82
20710;BME280;10516;51.518;9.864;2023-05-25T01:25:35;99621.81;;;11.71;72.84
20710;BME280;10516;51.518;9.864;2023-05-25T01:28:10;99626.97;;;11.72;73.04
20710;BME280;10516;51.518;9.864;2023-05-25T01:30:39;99612.44;;;11.68;73.16
20710;BME280;10516;51.518;9.864;2023-05-25T01:33:06;99605.81;;;11.59;73.26
20710;BME280;10516;51.518;9.864;2023-05-25T01:35:33;99617.88;;;11.73;73.11
20710;BME280;10516;51.518;9.864;2023-05-25T01:37:59;99609.16;;;11.66;72.76
20710;BME280;10516;51.518;9.864;2023-05-25T01:40:26;99627.88;;;11.78;73.01
20710;BME280;10516;51.518;9.864;2023-05-25T01:42:51;99625.69;;;11.75;73.48
20710;BME280;10516;51.518;9.864;2023-05-25T01:45:17;99620.09;;;11.76;73.56
20710;BME280;10516;51.518;9.864;2023-05-25T01:50:50;99624.03;;;11.62;73.75
20710;BME280;10516;51.518;9.864;2023-05-25T01:53:22;99625.00;;;11.68;74.22
20710;BME280;10516;51.518;9.864;2023-05-25T01:58:17;99609.75;;;11.57;74.22
20710;BME280;10516;51.518;9.864;2023-05-25T02:00:45;99611.72;;;11.61;74.05
20710;BME280;10516;51.518;9.864;2023-05-25T02:03:11;99616.72;;;11.58;74.16
20710;BME280;10516;51.518;9.864;2023-05-25T02:05:40;99619.75;;;11.61;74.58
20710;BME280;10516;51.518;9.864;2023-05-25T02:08:05;99618.16;;;11.49;74.63
20710;BME280;10516;51.518;9.864;2023-05-25T02:10:30;99613.94;;;11.53;74.76
20710;BME280;10516;51.518;9.864;2023-05-25T02:12:56;99624.28;;;11.61;74.38
20710;BME280;10516;51.518;9.864;2023-05-25T02:15:21;99617.66;;;11.52;74.40
20710;BME280;10516;51.518;9.864;2023-05-25T02:17:47;99620.22;;;11.47;74.74
20710;BME280;10516;51.518;9.864;2023-05-25T02:20:12;99609.41;;;11.53;74.47
20710;BME280;10516;51.518;9.864;2023-05-25T02:22:37;99625.78;;;11.57;74.29
20710;BME280;10516;51.518;9.864;2023-05-25T02:25:03;99615.25;;;11.39;75.28
20710;BME280;10516;51.518;9.864;2023-05-25T02:27:29;99617.31;;;11.48;75.54
20710;BME280;10516;51.518;9.864;2023-05-25T02:29:55;99625.78;;;11.57;75.53
20710;BME280;10516;51.518;9.864;2023-05-25T02:32:20;99611.03;;;11.54;74.82
20710;BME280;10516;51.518;9.864;2023-05-25T02:34:46;99607.78;;;11.52;74.63
20710;BME280;10516;51.518;9.864;2023-05-25T02:37:11;99593.41;;;11.42;75.11
20710;BME280;10516;51.518;9.864;2023-05-25T02:39:37;99621.78;;;11.31;74.48
20710;BME280;10516;51.518;9.864;2023-05-25T02:42:02;99611.16;;;11.36;75.20
20710;BME280;10516;51.518;9.864;2023-05-25T02:44:28;99600.13;;;11.44;74.47
20710;BME280;10516;51.518;9.864;2023-05-25T02:46:53;99621.06;;;11.24;74.27
20710;BME280;10516;51.518;9.864;2023-05-25T02:49:18;99608.28;;;11.26;74.72
20710;BME280;10516;51.518;9.864;2023-05-25T02:51:44;99610.13;;;11.37;74.71
20710;BME280;10516;51.518;9.864;2023-05-25T02:54:09;99607.34;;;11.32;74.31
20710;BME280;10516;51.518;9.864;2023-05-25T02:56:34;99628.38;;;11.40;74.69
20710;BME280;10516;51.518;9.864;2023-05-25T02:59:00;99614.34;;;11.33;74.12
20710;BME280;10516;51.518;9.864;2023-05-25T03:01:25;99619.31;;;11.29;74.73
20710;BME280;10516;51.518;9.864;2023-05-25T03:03:54;99616.75;;;11.23;74.56
20710;BME280;10516;51.518;9.864;2023-05-25T03:06:20;99611.31;;;11.06;74.95
20710;BME280;10516;51.518;9.864;2023-05-25T03:08:47;99607.72;;;11.12;74.56
20710;BME280;10516;51.518;9.864;2023-05-25T03:11:12;99611.66;;;11.21;74.71
20710;BME280;10516;51.518;9.864;2023-05-25T03:13:38;99622.09;;;11.35;74.41
20710;BME280;10516;51.518;9.864;2023-05-25T03:16:03;99626.28;;;11.30;74.46
20710;BME280;10516;51.518;9.864;2023-05-25T03:18:29;99637.31;;;11.34;74.49
20710;BME280;10516;51.518;9.864;2023-05-25T03:20:54;99639.88;;;11.06;74.83
20710;BME280;10516;51.518;9.864;2023-05-25T03:23:19;99626.63;;;10.88;75.69
20710;BME280;10516;51.518;9.864;2023-05-25T03:25:45;99621.44;;;11.16;74.53
20710;BME280;10516;51.518;9.864;2023-05-25T03:28:11;99628.72;;;11.20;74.68
20710;BME280;10516;51.518;9.864;2023-05-25T03:30:36;99642.78;;;11.27;74.25
20710;BME280;10516;51.518;9.864;2023-05-25T03:33:01;99638.38;;;11.21;74.99
20710;BME280;10516;51.518;9.864;2023-05-25T03:35:27;99639.66;;;11.07;74.71
20710;BME280;10516;51.518;9.864;2023-05-25T03:37:52;99653.94;;;11.01;74.94
20710;BME280;10516;51.518;9.864;2023-05-25T03:40:18;99635.13;;;11.08;75.54
20710;BME280;10516;51.518;9.864;2023-05-25T03:42:43;99655.34;;;11.04;75.87
20710;BME280;10516;51.518;9.864;2023-05-25T03:45:09;99662.66;;;11.08;76.00
20710;BME280;10516;51.518;9.864;2023-05-25T03:47:35;99657.63;;;10.77;77.56
20710;BME280;10516;51.518;9.864;2023-05-25T03:50:02;99633.59;;;10.66;77.81
20710;BME280;10516;51.518;9.864;2023-05-25T03:52:28;99644.91;;;11.02;76.18
20710;BME280;10516;51.518;9.864;2023-05-25T03:54:53;99673.44;;;10.37;80.09
20710;BME280;10516;51.518;9.864;2023-05-25T03:57:18;99669.19;;;9.82;83.02
20710;BME280;10516;51.518;9.864;2023-05-25T03:59:44;99682.91;;;10.33;80.75
20710;BME280;10516;51.518;9.864;2023-05-25T04:02:09;99688.28;;;9.79;83.94
20710;BME280;10516;51.518;9.864;2023-05-25T04:04:35;99682.81;;;9.92;83.26
20710;BME280;10516;51.518;9.864;2023-05-25T04:07:00;99673.63;;;9.88;83.67
20710;BME280;10516;51.518;9.864;2023-05-25T04:09:25;99684.81;;;9.78;84.23
20710;BME280;10516;51.518;9.864;2023-05-25T04:11:51;99679.63;;;9.83;83.62
20710;BME280;10516;51.518;9.864;2023-05-25T04:14:16;99691.06;;;10.38;80.70
20710;BME280;10516;51.518;9.864;2023-05-25T04:16:44;99685.41;;;10.17;82.47
20710;BME280;10516;51.518;9.864;2023-05-25T04:19:10;99692.28;;;9.70;84.54
20710;BME280;10516;51.518;9.864;2023-05-25T04:21:35;99681.19;;;9.73;84.95
20710;BME280;10516;51.518;9.864;2023-05-25T04:24:00;99681.47;;;10.01;84.26
20710;BME280;10516;51.518;9.864;2023-05-25T04:26:26;99659.28;;;10.37;81.63
20710;BME280;10516;51.518;9.864;2023-05-25T04:28:53;99684.06;;;9.90;84.87
20710;BME280;10516;51.518;9.864;2023-05-25T04:31:20;99682.03;;;10.39;82.55
20710;BME280;10516;51.518;9.864;2023-05-25T04:33:45;99686.91;;;10.42;81.91
20710;BME280;10516;51.518;9.864;2023-05-25T04:36:11;99681.03;;;10.52;81.77
20710;BME280;10516;51.518;9.864;2023-05-25T04:38:38;99678.81;;;10.19;83.01
20710;BME280;10516;51.518;9.864;2023-05-25T04:41:03;99682.13;;;9.97;83.66
20710;BME280;10516;51.518;9.864;2023-05-25T04:43:30;99676.94;;;10.49;81.60
20710;BME280;10516;51.518;9.864;2023-05-25T04:45:56;99689.72;;;11.12;79.59
20710;BME280;10516;51.518;9.864;2023-05-25T04:48:24;99686.44;;;10.87;79.81
20710;BME280;10516;51.518;9.864;2023-05-25T04:50:49;99691.38;;;10.30;81.88
20710;BME280;10516;51.518;9.864;2023-05-25T04:53:15;99700.66;;;9.92;84.06
20710;BME280;10516;51.518;9.864;2023-05-25T04:55:41;99680.44;;;9.84;84.32
20710;BME280;10516;51.518;9.864;2023-05-25T04:58:06;99672.03;;;10.35;82.25
20710;BME280;10516;51.518;9.864;2023-05-25T05:00:32;99684.25;;;10.24;82.07
20710;BME280;10516;51.518;9.864;2023-05-25T05:02:58;99705.38;;;10.08;82.71
20710;BME280;10516;51.518;9.864;2023-05-25T05:05:24;99709.19;;;10.18;83.45
20710;BME280;10516;51.518;9.864;2023-05-25T05:07:50;99697.16;;;10.27;82.42
20710;BME280;10516;51.518;9.864;2023-05-25T05:10:16;99707.00;;;10.27;82.23
20710;BME280;10516;51.518;9.864;2023-05-25T05:12:42;99713.16;;;10.27;82.06
20710;BME280;10516;51.518;9.864;2023-05-25T05:15:07;99718.19;;;10.65;80.83
20710;BME280;10516;51.518;9.864;2023-05-25T05:17:32;99703.16;;;10.82;80.08
20710;BME280;10516;51.518;9.864;2023-05-25T05:19:58;99722.50;;;9.82;83.20
20710;BME280;10516;51.518;9.864;2023-05-25T05:22:23;99720.59;;;10.85;80.24
20710;BME280;10516;51.518;9.864;2023-05-25T05:24:49;99735.09;;;10.47;81.54
20710;BME280;10516;51.518;9.864;2023-05-25T05:27:15;99728.94;;;10.29;81.93
20710;BME280;10516;51.518;9.864;2023-05-25T05:29:41;99738.69;;;10.23;82.47
20710;BME280;10516;51.518;9.864;2023-05-25T05:32:07;99739.03;;;10.09;81.99
20710;BME280;10516;51.518;9.864;2023-05-25T05:34:32;99727.84;;;10.18;83.49
20710;BME280;10516;51.518;9.864;2023-05-25T05:36:58;99736.59;;;10.55;81.05
20710;BME280;10516;51.518;9.864;2023-05-25T05:39:26;99744.75;;;10.30;82.68
20710;BME280;10516;51.518;9.864;2023-05-25T05:41:52;99748.72;;;9.85;83.90
20710;BME280;10516;51.518;9.864;2023-05-25T05:44:19;99726.94;;;10.24;83.22
20710;BME280;10516;51.518;9.864;2023-05-25T05:46:45;99752.31;;;10.15;81.48
20710;BME280;10516;51.518;9.864;2023-05-25T05:49:10;99763.72;;;10.04;83.11
20710;BME280;10516;51.518;9.864;2023-05-25T05:51:36;99763.72;;;10.22;83.87
20710;BME280;10516;51.518;9.864;2023-05-25T05:54:01;99754.16;;;10.92;79.54
20710;BME280;10516;51.518;9.864;2023-05-25T05:56:27;99766.63;;;10.21;82.62
20710;BME280;10516;51.518;9.864;2023-05-25T05:58:53;99772.03;;;10.62;81.71
20710;BME280;10516;51.518;9.864;2023-05-25T06:01:18;99772.56;;;9.98;83.79
20710;BME280;10516;51.518;9.864;2023-05-25T06:03:44;99750.09;;;9.51;85.61
20710;BME280;10516;51.518;9.864;2023-05-25T06:06:10;99801.38;;;10.14;84.24
20710;BME280;10516;51.518;9.864;2023-05-25T06:08:35;99789.47;;;10.46;81.83
20710;BME280;10516;51.518;9.864;2023-05-25T06:11:01;99786.28;;;10.56;81.69
20710;BME280;10516;51.518;9.864;2023-05-25T06:13:26;99771.13;;;10.20;82.82
20710;BME280;10516;51.518;9.864;2023-05-25T06:15:51;99789.34;;;9.87;84.49
20710;BME280;10516;51.518;9.864;2023-05-25T06:18:17;99792.97;;;9.50;85.32
20710;BME280;10516;51.518;9.864;2023-05-25T06:20:43;99770.66;;;9.20;86.45
20710;BME280;10516;51.518;9.864;2023-05-25T06:23:08;99793.06;;;9.37;85.76
20710;BME280;10516;51.518;9.864;2023-05-25T06:25:36;99797.56;;;10.04;84.72
20710;BME280;10516;51.518;9.864;2023-05-25T06:28:02;99786.16;;;10.51;81.06
20710;BME280;10516;51.518;9.864;2023-05-25T06:30:27;99793.38;;;11.21;78.76
20710;BME280;10516;51.518;9.864;2023-05-25T06:32:52;99803.31;;;10.73;80.77
20710;BME280;10516;51.518;9.864;2023-05-25T06:35:18;99776.66;;;10.85;80.20
20710;BME280;10516;51.518;9.864;2023-05-25T06:37:49;99794.59;;;11.49;77.25
20710;BME280;10516;51.518;9.864;2023-05-25T06:40:15;99800.66;;;11.03;79.31
20710;BME280;10516;51.518;9.864;2023-05-25T06:42:41;99802.38;;;10.68;80.35
20710;BME280;10516;51.518;9.864;2023-05-25T06:45:07;99788.19;;;10.19;82.48
20710;BME280;10516;51.518;9.864;2023-05-25T06:47:33;99790.53;;;9.91;82.92
20710;BME280;10516;51.518;9.864;2023-05-25T06:49:59;99793.03;;;10.04;82.69
20710;BME280;10516;51.518;9.864;2023-05-25T06:52:25;99782.50;;;10.09;82.56
20710;BME280;10516;51.518;9.864;2023-05-25T06:54:54;99792.88;;;10.72;81.03
20710;BME280;10516;51.518;9.864;2023-05-25T06:57:20;99783.88;;;10.36;81.26
20710;BME280;10516;51.518;9.864;2023-05-25T06:59:45;99804.34;;;11.02;79.74
20710;BME280;10516;51.518;9.864;2023-05-25T07:02:11;99813.03;;;11.39;78.40
20710;BME280;10516;51.518;9.864;2023-05-25T07:04:36;99814.75;;;11.74;76.87
20710;BME280;10516;51.518;9.864;2023-05-25T07:07:02;99807.41;;;11.17;78.81
20710;BME280;10516;51.518;9.864;2023-05-25T07:09:28;99805.91;;;11.21;78.83
20710;BME280;10516;51.518;9.864;2023-05-25T07:11:53;99810.31;;;11.15;78.39
20710;BME280;10516;51.518;9.864;2023-05-25T07:14:18;99813.53;;;11.59;77.58
20710;BME280;10516;51.518;9.864;2023-05-25T07:16:44;99803.56;;;11.77;76.18
20710;BME280;10516;51.518;9.864;2023-05-25T07:19:10;99810.53;;;12.01;75.66
20710;BME280;10516;51.518;9.864;2023-05-25T07:21:36;99811.84;;;11.87;75.50
20710;BME280;10516;51.518;9.864;2023-05-25T07:24:02;99799.75;;;11.85;75.97
20710;BME280;10516;51.518;9.864;2023-05-25T07:26:27;99806.75;;;12.49;73.54
20710;BME280;10516;51.518;9.864;2023-05-25T07:28:53;99809.72;;;12.13;74.78
20710;BME280;10516;51.518;9.864;2023-05-25T07:31:18;99818.09;;;10.57;78.81
20710;BME280;10516;51.518;9.864;2023-05-25T07:33:44;99822.56;;;10.64;80.32
20710;BME280;10516;51.518;9.864;2023-05-25T07:36:09;99821.97;;;10.91;79.39
20710;BME280;10516;51.518;9.864;2023-05-25T07:38:35;99816.00;;;10.60;78.97
20710;BME280;10516;51.518;9.864;2023-05-25T07:41:00;99801.38;;;10.80;78.55
20710;BME280;10516;51.518;9.864;2023-05-25T07:43:26;99834.34;;;10.74;79.99
20710;BME280;10516;51.518;9.864;2023-05-25T07:45:52;99833.09;;;10.40;80.67
20710;BME280;10516;51.518;9.864;2023-05-25T07:48:17;99809.72;;;10.54;79.97
20710;BME280;10516;51.518;9.864;2023-05-25T07:50:43;99830.34;;;10.29;80.38
20710;BME280;10516;51.518;9.864;2023-05-25T07:53:08;99832.25;;;10.76;79.81
20710;BME280;10516;51.518;9.864;2023-05-25T07:55:33;99823.19;;;11.48;77.06
20710;BME280;10516;51.518;9.864;2023-05-25T07:57:59;99835.78;;;10.88;79.25
20710;BME280;10516;51.518;9.864;2023-05-25T08:00:24;99843.34;;;10.43;80.41
20710;BME280;10516;51.518;9.864;2023-05-25T08:02:50;99828.78;;;11.17;78.91
20710;BME280;10516;51.518;9.864;2023-05-25T08:05:15;99820.56;;;10.89;79.99
20710;BME280;10516;51.518;9.864;2023-05-25T08:07:40;99824.00;;;10.05;80.62
20710;BME280;10516;51.518;9.864;2023-05-25T08:10:07;99829.25;;;10.36;81.57
20710;BME280;10516;51.518;9.864;2023-05-25T08:12:32;99828.13;;;10.92;80.22
20710;BME280;10516;51.518;9.864;2023-05-25T08:14:58;99838.34;;;10.47;80.03
20710;BME280;10516;51.518;9.864;2023-05-25T08:17:23;99844.06;;;10.50;82.08
20710;BME280;10516;51.518;9.864;2023-05-25T08:19:49;99851.06;;;10.81;79.97
20710;BME280;10516;51.518;9.864;2023-05-25T08:22:15;99824.44;;;10.75;78.83
20710;BME280;10516;51.518;9.864;2023-05-25T08:24:40;99837.00;;;11.45;78.40
20710;BME280;10516;51.518;9.864;2023-05-25T08:27:06;99845.06;;;11.27;77.42
20710;BME280;10516;51.518;9.864;2023-05-25T08:29:31;99830.34;;;11.36;77.74
20710;BME280;10516;51.518;9.864;2023-05-25T08:31:56;99840.19;;;11.88;76.40
20710;BME280;10516;51.518;9.864;2023-05-25T08:34:22;99838.25;;;11.43;76.57
20710;BME280;10516;51.518;9.864;2023-05-25T08:36:47;99843.69;;;11.89;76.79
20710;BME280;10516;51.518;9.864;2023-05-25T08:39:13;99844.28;;;11.38;75.83
20710;BME280;10516;51.518;9.864;2023-05-25T08:41:41;99835.22;;;11.80;76.04
20710;BME280;10516;51.518;9.864;2023-05-25T08:44:07;99847.22;;;12.64;75.18
20710;BME280;10516;51.518;9.864;2023-05-25T08:46:33;99824.44;;;12.50;73.29
20710;BME280;10516;51.518;9.864;2023-05-25T08:51:40;99847.53;;;12.16;73.90
20710;BME280;10516;51.518;9.864;2023-05-25T08:54:11;99853.03;;;12.61;74.37
20710;BME280;10516;51.518;9.864;2023-05-25T08:56:51;99843.47;;;12.65;74.00
20710;BME280;10516;51.518;9.864;2023-05-25T08:59:27;99844.25;;;12.49;73.40
20710;BME280;10516;51.518;9.864;2023-05-25T09:04:33;99858.97;;;13.03;72.22
20710;BME280;10516;51.518;9.864;2023-05-25T09:06:59;99855.00;;;13.17;72.51
20710;BME280;10516;51.518;9.864;2023-05-25T09:09:25;99852.00;;;13.02;72.20
20710;BME280;10516;51.518;9.864;2023-05-25T09:11:50;99857.84;;;12.87;72.53
20710;BME280;10516;51.518;9.864;2023-05-25T09:14:16;99847.69;;;13.01;72.58
20710;BME280;10516;51.518;9.864;2023-05-25T09:16:42;99838.75;;;13.23;71.75
20710;BME280;10516;51.518;9.864;2023-05-25T09:19:08;99836.78;;;12.91;72.37
20710;BME280;10516;51.518;9.864;2023-05-25T09:21:34;99851.47;;;12.88;71.93
20710;BME280;10516;51.518;9.864;2023-05-25T09:24:00;99870.78;;;12.90;72.92
20710;BME280;10516;51.518;9.864;2023-05-25T09:26:25;99863.75;;;12.61;72.28
20710;BME280;10516;51.518;9.864;2023-05-25T09:28:51;99866.88;;;12.69;73.30
20710;BME280;10516;51.518;9.864;2023-05-25T09:31:17;99863.97;;;12.71;72.55
20710;BME280;10516;51.518;9.864;2023-05-25T09:33:43;99846.63;;;11.87;74.41
20710;BME280;10516;51.518;9.864;2023-05-25T09:36:11;99857.97;;;12.41;73.17
20710;BME280;10516;51.518;9.864;2023-05-25T09:38:39;99871.47;;;12.97;74.08
20710;BME280;10516;51.518;9.864;2023-05-25T09:41:05;99866.06;;;13.09;72.64
20710;BME280;10516;51.518;9.864;2023-05-25T09:43:31;99856.25;;;13.42;72.18
20710;BME280;10516;51.518;9.864;2023-05-25T09:45:57;99847.69;;;13.45;72.13
20710;BME280;10516;51.518;9.864;2023-05-25T09:48:22;99859.34;;;13.34;71.21
20710;BME280;10516;51.518;9.864;2023-05-25T09:50:48;99862.00;;;13.06;70.34
20710;BME280;10516;51.518;9.864;2023-05-25T09:53:13;99843.41;;;13.61;69.70
20710;BME280;10516;51.518;9.864;2023-05-25T09:55:39;99865.81;;;14.21;69.61
20710;BME280;10516;51.518;9.864;2023-05-25T09:58:04;99859.03;;;14.74;68.33
20710;BME280;10516;51.518;9.864;2023-05-25T10:00:31;99861.19;;;15.25;67.27
20710;BME280;10516;51.518;9.864;2023-05-25T10:02:56;99857.28;;;14.63;66.91
20710;BME280;10516;51.518;9.864;2023-05-25T10:05:21;99845.00;;;14.12;67.68
20710;BME280;10516;51.518;9.864;2023-05-25T10:07:49;99859.06;;;14.57;69.23
20710;BME280;10516;51.518;9.864;2023-05-25T10:10:15;99860.16;;;15.26;67.17
20710;BME280;10516;51.518;9.864;2023-05-25T10:12:42;99839.16;;;14.53;66.87
20710;BME280;10516;51.518;9.864;2023-05-25T10:15:08;99852.97;;;15.10;67.74
20710;BME280;10516;51.518;9.864;2023-05-25T10:17:35;99859.63;;;15.29;65.00
20710;BME280;10516;51.518;9.864;2023-05-25T10:20:06;99855.09;;;15.93;65.55
20710;BME280;10516;51.518;9.864;2023-05-25T10:23:07;99862.41;;;14.09;67.67
20710;BME280;10516;51.518;9.864;2023-05-25T10:25:39;99850.50;;;14.39;67.95
20710;BME280;10516;51.518;9.864;2023-05-25T10:28:32;99854.50;;;14.36;68.72
20710;BME280;10516;51.518;9.864;2023-05-25T10:30:59;99839.50;;;14.02;67.84
20710;BME280;10516;51.518;9.864;2023-05-25T10:33:26;99848.78;;;13.78;68.96
20710;BME280;10516;51.518;9.864;2023-05-25T10:35:53;99850.16;;;13.97;70.50
20710;BME280;10516;51.518;9.864;2023-05-25T10:38:19;99847.63;;;13.57;68.88
20710;BME280;10516;51.518;9.864;2023-05-25T10:40:46;99837.78;;;14.12;70.45
20710;BME280;10516;51.518;9.864;2023-05-25T10:43:18;99844.69;;;14.47;67.70
20710;BME280;10516;51.518;9.864;2023-05-25T10:45:44;99846.53;;;14.41;67.79
20710;BME280;10516;51.518;9.864;2023-05-25T10:48:10;99823.75;;;14.70;68.11
20710;BME280;10516;51.518;9.864;2023-05-25T10:50:36;99828.25;;;15.40;66.82
20710;BME280;10516;51.518;9.864;2023-05-25T10:53:06;99834.94;;;14.84;66.07
20710;BME280;10516;51.518;9.864;2023-05-25T10:58:17;99843.13;;;15.74;66.06
20710;BME280;10516;51.518;9.864;2023-05-25T11:00:56;99830.50;;;16.21;64.21
20710;BME280;10516;51.518;9.864;2023-05-25T11:03:46;99835.25;;;15.67;65.86
20710;BME280;10516;51.518;9.864;2023-05-25T11:06:15;99833.28;;;15.90;63.94
20710;BME280;10516;51.518;9.864;2023-05-25T11:08:47;99834.09;;;14.78;65.73
20710;BME280;10516;51.518;9.864;2023-05-25T11:11:14;99824.97;;;15.33;63.65
20710;BME280;10516;51.518;9.864;2023-05-25T11:13:44;99814.88;;;15.45;63.29
20710;BME280;10516;51.518;9.864;2023-05-25T11:18:57;99819.34;;;17.82;61.86
20710;BME280;10516;51.518;9.864;2023-05-25T11:23:58;99815.03;;;17.61;60.08
20710;BME280;10516;51.518;9.864;2023-05-25T11:26:26;99809.97;;;16.10;60.21
20710;BME280;10516;51.518;9.864;2023-05-25T11:28:53;99821.78;;;17.83;62.06
20710;BME280;10516;51.518;9.864;2023-05-25T11:31:32;99812.56;;;17.84;58.13
20710;BME280;10516;51.518;9.864;2023-05-25T11:34:02;99795.16;;;18.46;57.34
20710;BME280;10516;51.518;9.864;2023-05-25T11:36:33;99813.16;;;17.51;56.96
20710;BME280;10516;51.518;9.864;2023-05-25T11:39:00;99796.13;;;17.76;57.11
20710;BME280;10516;51.518;9.864;2023-05-25T11:41:27;99806.66;;;17.52;58.06
20710;BME280;10516;51.518;9.864;2023-05-25T11:43:53;99808.63;;;16.65;56.95
20710;BME280;10516;51.518;9.864;2023-05-25T11:46:20;99771.50;;;16.87;57.82
20710;BME280;10516;51.518;9.864;2023-05-25T11:48:52;99790.25;;;18.58;58.77
20710;BME280;10516;51.518;9.864;2023-05-25T11:51:23;99778.25;;;18.05;55.91
20710;BME280;10516;51.518;9.864;2023-05-25T11:53:49;99789.28;;;18.24;55.50
20710;BME280;10516;51.518;9.864;2023-05-25T11:56:16;99790.72;;;17.86;55.23
20710;BME280;10516;51.518;9.864;2023-05-25T11:58:43;99781.00;;;17.40;55.61
20710;BME280;10516;51.518;9.864;2023-05-25T12:01:19;99791.53;;;17.86;55.21
20710;BME280;10516;51.518;9.864;2023-05-25T12:03:51;99765.88;;;17.39;52.09
20710;BME280;10516;51.518;9.864;2023-05-25T12:06:31;99779.53;;;18.28;53.36
20710;BME280;10516;51.518;9.864;2023-05-25T12:09:00;99770.31;;;18.34;56.56
20710;BME280;10516;51.518;9.864;2023-05-25T12:11:34;99781.53;;;18.71;53.70
20710;BME280;10516;51.518;9.864;2023-05-25T12:14:04;99794.25;;;19.53;55.87
20710;BME280;10516;51.518;9.864;2023-05-25T12:16:31;99788.66;;;19.73;55.04
20710;BME280;10516;51.518;9.864;2023-05-25T12:18:59;99786.56;;;18.88;52.14
20710;BME280;10516;51.518;9.864;2023-05-25T12:21:26;99785.72;;;18.97;51.03
20710;BME280;10516;51.518;9.864;2023-05-25T12:23:52;99789.78;;;19.38;51.88
20710;BME280;10516;51.518;9.864;2023-05-25T12:26:17;99779.66;;;20.35;53.82
20710;BME280;10516;51.518;9.864;2023-05-25T12:29:02;99791.81;;;19.57;53.23
20710;BME280;10516;51.518;9.864;2023-05-25T12:31:32;99789.47;;;19.74;51.07
20710;BME280;10516;51.518;9.864;2023-05-25T12:36:39;99786.66;;;20.97;51.67
20710;BME280;10516;51.518;9.864;2023-05-25T12:39:06;99784.88;;;20.50;48.86
20710;BME280;10516;51.518;9.864;2023-05-25T12:41:52;99786.31;;;21.41;52.69
20710;BME280;10516;51.518;9.864;2023-05-25T12:44:28;99769.25;;;21.54;48.14
20710;BME280;10516;51.518;9.864;2023-05-25T12:47:14;99748.47;;;21.31;48.87
20710;BME280;10516;51.518;9.864;2023-05-25T12:49:42;99785.84;;;20.36;48.89
20710;BME280;10516;51.518;9.864;2023-05-25T12:52:09;99781.47;;;19.25;51.74
20710;BME280;10516;51.518;9.864;2023-05-25T12:57:12;99757.91;;;21.65;48.78
20710;BME280;10516;51.518;9.864;2023-05-25T12:59:40;99779.44;;;22.21;47.25
20710;BME280;10516;51.518;9.864;2023-05-25T13:02:06;99760.44;;;21.11;47.29
20710;BME280;10516;51.518;9.864;2023-05-25T13:04:33;99775.25;;;21.00;45.80
20710;BME280;10516;51.518;9.864;2023-05-25T13:06:59;99764.69;;;21.82;46.78
20710;BME280;10516;51.518;9.864;2023-05-25T13:09:27;99768.47;;;21.67;49.80
20710;BME280;10516;51.518;9.864;2023-05-25T13:11:54;99763.03;;;21.99;50.85
20710;BME280;10516;51.518;9.864;2023-05-25T13:14:20;99756.06;;;23.10;48.34
20710;BME280;10516;51.518;9.864;2023-05-25T13:16:47;99766.13;;;22.88;45.64
20710;BME280;10516;51.518;9.864;2023-05-25T13:19:13;99752.44;;;21.52;47.75
20710;BME280;10516;51.518;9.864;2023-05-25T13:21:38;99735.03;;;20.65;48.38
20710;BME280;10516;51.518;9.864;2023-05-25T13:24:04;99745.47;;;21.14;47.73